createdAt,value
2019-05-07T00:00:36.641Z,16.87
2019-05-07T00:03:06.103Z,19.20
2019-05-07T00:05:35.493Z,17.05
2019-05-07T00:08:05.852Z,18.70
2019-05-07T00:10:35.193Z,17.23
2019-05-07T00:13:04.611Z,17.92
2019-05-07T00:15:33.959Z,17.40
2019-05-07T00:18:03.418Z,18.73
2019-05-07T00:20:32.956Z,18.10
2019-05-07T00:23:02.954Z,18.12
2019-05-07T00:25:33.008Z,18.25
2019-05-07T00:28:02.959Z,18.80
2019-05-07T00:30:33.243Z,18.40
2019-05-07T00:33:02.955Z,18.05
2019-05-07T00:35:42.919Z,18.65
2019-05-07T00:38:16.720Z,19.10
2019-05-07T00:40:59.671Z,18.62
2019-05-07T00:43:32.207Z,18.55
2019-05-07T00:48:32.794Z,17.87
2019-05-07T00:51:20.036Z,18.27
2019-05-07T00:53:49.464Z,18.57
2019-05-07T00:56:18.910Z,19.20
2019-05-07T00:58:48.323Z,18.90
2019-05-07T01:01:17.868Z,19.55
2019-05-07T01:03:48.152Z,19.23
2019-05-07T01:06:17.566Z,19.90
2019-05-07T01:08:47.040Z,19.15
2019-05-07T01:11:16.382Z,19.80
2019-05-07T01:13:45.835Z,19.15
2019-05-07T01:16:15.324Z,19.17
2019-05-07T01:18:44.700Z,20.12
2019-05-07T01:21:14.076Z,19.27
2019-05-07T01:23:43.445Z,21.12
2019-05-07T01:26:12.856Z,19.85
2019-05-07T01:29:02.950Z,19.40
2019-05-07T01:31:35.409Z,19.40
2019-05-07T01:34:16.324Z,19.60
2019-05-07T01:36:45.734Z,19.20
2019-05-07T01:39:15.104Z,19.35
2019-05-07T01:41:44.471Z,20.92
2019-05-07T01:44:13.831Z,19.82
2019-05-07T01:46:43.233Z,19.67
2019-05-07T01:49:12.765Z,18.80
2019-05-07T01:51:42.400Z,20.02
2019-05-07T01:54:12.943Z,20.97
2019-05-07T01:56:42.816Z,19.47
2019-05-07T01:59:12.330Z,19.87
2019-05-07T02:01:42.978Z,20.30
2019-05-07T02:04:14.253Z,20.40
2019-05-07T02:07:02.862Z,21.97
2019-05-07T02:09:34.131Z,22.75
2019-05-07T02:12:05.235Z,22.73
2019-05-07T02:14:34.640Z,23.97
2019-05-07T02:17:04.129Z,25.30
2019-05-07T02:19:33.562Z,25.82
2019-05-07T02:22:03.092Z,24.35
2019-05-07T02:24:33.900Z,26.02
2019-05-07T02:27:03.516Z,25.77
2019-05-07T02:29:32.932Z,26.70
2019-05-07T02:32:04.658Z,25.95
2019-05-07T02:34:34.193Z,26.55
2019-05-07T02:37:05.785Z,26.77
2019-05-07T02:39:39.468Z,25.33
2019-05-07T02:42:12.911Z,25.62
2019-05-07T02:44:59.903Z,26.40
2019-05-07T02:47:33.077Z,26.07
2019-05-07T02:50:03.852Z,26.75
2019-05-07T02:52:53.357Z,24.33
2019-05-07T02:55:23.333Z,24.63
2019-05-07T02:57:53.965Z,23.90
2019-05-07T03:00:24.419Z,24.77
2019-05-07T03:02:54.048Z,26.00
2019-05-07T03:05:23.481Z,25.64
2019-05-07T03:07:53.609Z,26.40
2019-05-07T03:10:23.948Z,25.88
2019-05-07T03:12:53.924Z,24.30
2019-05-07T03:15:24.196Z,24.95
2019-05-07T03:17:54.066Z,24.77
2019-05-07T03:20:28.431Z,23.97
2019-05-07T03:22:58.765Z,24.23
2019-05-07T03:25:29.747Z,24.92
2019-05-07T03:27:59.109Z,25.02
2019-05-07T03:30:39.393Z,24.20
2019-05-07T03:33:16.580Z,23.50
2019-05-07T03:35:47.728Z,24.12
2019-05-07T03:38:17.075Z,24.32
2019-05-07T03:40:49.304Z,24.15
2019-05-07T03:45:48.889Z,25.37
2019-05-07T03:48:19.867Z,24.70
2019-05-07T03:50:49.237Z,24.12
2019-05-07T03:53:18.590Z,23.75
2019-05-07T03:55:48.006Z,23.98
2019-05-07T03:58:17.774Z,24.07
2019-05-07T04:00:47.210Z,25.32
2019-05-07T04:03:19.259Z,26.95
2019-05-07T04:05:47.711Z,24.72
2019-05-07T04:08:17.139Z,26.00
2019-05-07T04:10:46.610Z,25.12
2019-05-07T04:13:16.005Z,23.75
2019-05-07T04:15:45.442Z,24.32
2019-05-07T04:18:14.862Z,25.37
2019-05-07T04:20:44.285Z,25.17
2019-05-07T04:23:14.231Z,25.90
2019-05-07T04:25:45.503Z,25.12
2019-05-07T04:28:28.412Z,26.67
2019-05-07T04:30:58.559Z,25.10
2019-05-07T04:33:29.619Z,24.63
2019-05-07T04:36:03.335Z,25.55
2019-05-07T04:38:33.339Z,26.45
2019-05-07T04:41:03.815Z,25.57
2019-05-07T04:43:33.918Z,25.50
2019-05-07T04:46:03.557Z,25.55
2019-05-07T04:48:34.133Z,26.23
2019-05-07T04:51:05.351Z,26.17
2019-05-07T04:53:34.715Z,27.13
2019-05-07T04:56:04.323Z,27.42
2019-05-07T04:58:34.094Z,25.75
2019-05-07T05:01:05.313Z,27.32
2019-05-07T05:03:38.641Z,26.50
2019-05-07T05:06:05.994Z,27.00
2019-05-07T05:08:35.416Z,28.15
2019-05-07T05:11:04.772Z,29.10
2019-05-07T05:13:34.223Z,29.82
2019-05-07T05:16:05.943Z,28.30
2019-05-07T05:18:35.314Z,27.73
2019-05-07T05:21:09.451Z,28.90
2019-05-07T05:23:52.385Z,30.35
2019-05-07T05:26:21.992Z,30.60
2019-05-07T05:28:52.522Z,30.62
2019-05-07T05:31:22.392Z,30.50
2019-05-07T05:33:52.681Z,31.37
2019-05-07T05:36:22.408Z,30.65
2019-05-07T05:38:52.877Z,30.02
2019-05-07T05:41:23.472Z,31.63
2019-05-07T05:43:54.459Z,31.52
2019-05-07T05:46:25.469Z,31.23
2019-05-07T05:48:54.840Z,30.45
2019-05-07T05:51:34.649Z,30.37
2019-05-07T05:54:18.863Z,31.43
2019-05-07T05:56:51.946Z,28.23
2019-05-07T05:59:48.138Z,29.23
2019-05-07T06:02:23.525Z,27.42
2019-05-07T06:04:54.529Z,27.00
2019-05-07T06:07:42.772Z,26.30
2019-05-07T06:10:25.885Z,26.75
2019-05-07T06:12:56.895Z,25.70
2019-05-07T06:15:33.855Z,23.97
2019-05-07T06:18:17.916Z,24.52
2019-05-07T06:20:52.790Z,25.37
2019-05-07T06:23:23.810Z,23.95
2019-05-07T06:25:53.152Z,24.03
2019-05-07T06:28:22.592Z,24.45
2019-05-07T06:30:52.752Z,24.18
2019-05-07T06:33:23.122Z,24.07
2019-05-07T06:35:52.655Z,24.05
2019-05-07T06:38:23.178Z,24.00
2019-05-07T06:40:56.721Z,23.22
2019-05-07T06:43:27.726Z,24.05
2019-05-07T06:45:58.729Z,23.67
2019-05-07T06:48:38.888Z,20.68
2019-05-07T06:50:59.823Z,20.70
2019-05-07T06:53:33.303Z,20.75
2019-05-07T06:56:03.883Z,20.52
2019-05-07T06:58:44.043Z,19.82
2019-05-07T07:01:17.766Z,19.32
2019-05-07T07:04:05.166Z,18.85
2019-05-07T07:06:36.215Z,18.37
2019-05-07T07:09:24.899Z,19.80
2019-05-07T07:11:55.991Z,17.82
2019-05-07T07:14:27.061Z,17.63
2019-05-07T07:16:56.505Z,19.07
2019-05-07T07:19:27.433Z,17.23
2019-05-07T07:21:56.839Z,16.40
2019-05-07T07:24:26.205Z,17.23
2019-05-07T07:26:55.589Z,17.80
2019-05-07T07:29:26.576Z,17.42
2019-05-07T07:31:57.602Z,18.43
2019-05-07T07:34:28.427Z,18.50
2019-05-07T07:37:06.012Z,17.83
2019-05-07T07:39:32.320Z,18.37
2019-05-07T07:42:03.450Z,17.45
2019-05-07T07:44:33.099Z,17.53
2019-05-07T07:47:02.885Z,17.00
2019-05-07T07:49:33.292Z,16.33
2019-05-07T07:52:03.304Z,16.27
2019-05-07T07:54:32.796Z,14.40
2019-05-07T07:57:06.461Z,14.38
2019-05-07T07:59:49.777Z,14.13
2019-05-07T08:02:26.351Z,14.68
2019-05-07T08:04:57.319Z,15.32
2019-05-07T08:07:26.709Z,14.38
2019-05-07T08:09:56.065Z,14.60
2019-05-07T08:12:25.420Z,14.43
2019-05-07T08:15:13.016Z,13.43
2019-05-07T08:19:57.429Z,12.82
2019-05-07T08:22:26.807Z,12.58
2019-05-07T08:24:57.206Z,13.70
2019-05-07T08:27:26.688Z,12.93
2019-05-07T08:29:56.127Z,13.30
2019-05-07T08:32:36.825Z,13.28
2019-05-07T08:35:16.065Z,12.98
2019-05-07T08:37:45.423Z,12.00
2019-05-07T08:40:14.867Z,13.05
2019-05-07T08:42:44.289Z,12.73
2019-05-07T08:45:32.647Z,13.38
2019-05-07T08:48:06.350Z,13.25
2019-05-07T08:50:35.785Z,12.70
2019-05-07T08:53:05.895Z,12.30
2019-05-07T08:55:35.268Z,12.18
2019-05-07T08:58:06.190Z,11.57
2019-05-07T09:00:35.633Z,12.55
2019-05-07T09:03:18.616Z,12.07
2019-05-07T09:05:36.433Z,11.45
2019-05-07T09:08:05.808Z,11.48
2019-05-07T09:10:35.187Z,10.80
2019-05-07T09:13:05.466Z,11.03
2019-05-07T09:15:34.917Z,11.43
2019-05-07T09:18:05.251Z,10.58
2019-05-07T09:20:36.241Z,10.82
2019-05-07T09:23:05.758Z,10.82
2019-05-07T09:25:36.771Z,10.78
2019-05-07T09:30:52.822Z,11.68
2019-05-07T09:33:25.196Z,11.25
2019-05-07T09:35:55.696Z,10.85
2019-05-07T09:38:25.038Z,11.85
2019-05-07T09:40:56.850Z,11.70
2019-05-07T09:43:28.428Z,11.65
2019-05-07T09:45:57.797Z,11.12
2019-05-07T09:48:27.213Z,11.57
2019-05-07T09:50:57.798Z,10.70
2019-05-07T09:53:27.368Z,11.40
2019-05-07T09:55:56.727Z,10.25
2019-05-07T09:58:35.658Z,12.07
2019-05-07T10:00:57.179Z,12.90
2019-05-07T10:03:28.095Z,12.35
2019-05-07T10:05:57.471Z,12.03
2019-05-07T10:08:26.843Z,13.38
2019-05-07T10:10:56.267Z,12.65
2019-05-07T10:13:43.532Z,11.78
2019-05-07T10:16:14.607Z,11.95
2019-05-07T10:18:44.055Z,12.43
2019-05-07T10:21:13.539Z,11.53
2019-05-07T10:23:43.039Z,10.35
2019-05-07T10:26:12.493Z,9.58
2019-05-07T10:28:42.475Z,10.45
2019-05-07T10:31:13.039Z,11.57
2019-05-07T10:33:43.469Z,10.98
2019-05-07T10:36:12.852Z,11.48
2019-05-07T10:38:42.211Z,12.13
2019-05-07T10:41:12.260Z,12.13
2019-05-07T10:43:42.844Z,13.58
2019-05-07T10:46:17.225Z,13.38
2019-05-07T10:48:57.364Z,14.43
2019-05-07T10:51:26.868Z,17.23
2019-05-07T10:53:58.715Z,15.00
2019-05-07T10:56:28.156Z,15.43
2019-05-07T10:58:57.529Z,16.82
2019-05-07T11:01:28.540Z,15.70
2019-05-07T11:03:57.926Z,13.03
2019-05-07T11:06:32.012Z,14.00
2019-05-07T11:09:01.148Z,14.28
2019-05-07T11:11:32.193Z,13.77
2019-05-07T11:14:02.687Z,13.30
2019-05-07T11:16:33.789Z,14.58
2019-05-07T11:19:03.271Z,14.83
2019-05-07T11:21:33.614Z,15.03
2019-05-07T11:24:03.569Z,14.80
2019-05-07T11:26:33.162Z,15.13
2019-05-07T11:29:03.774Z,14.98
2019-05-07T11:31:33.341Z,12.50
2019-05-07T11:34:03.058Z,13.25
2019-05-07T11:36:34.398Z,12.53
2019-05-07T11:39:04.821Z,11.63
2019-05-07T11:41:37.548Z,11.65
2019-05-07T11:44:12.438Z,12.93
2019-05-07T11:46:44.457Z,13.60
2019-05-07T11:49:15.681Z,13.30
2019-05-07T11:51:49.183Z,13.47
2019-05-07T11:54:18.563Z,13.75
2019-05-07T11:56:47.928Z,13.95
2019-05-07T11:59:17.303Z,12.53
2019-05-07T12:01:48.373Z,12.58
2019-05-07T12:04:18.828Z,12.88
2019-05-07T12:06:48.211Z,13.15
2019-05-07T12:09:17.590Z,11.33
2019-05-07T12:11:47.014Z,11.45
2019-05-07T12:14:28.033Z,10.25
2019-05-07T12:16:47.437Z,10.27
2019-05-07T12:19:17.027Z,9.38
2019-05-07T12:21:46.631Z,10.30
2019-05-07T12:24:16.522Z,9.98
2019-05-07T12:26:47.193Z,11.73
2019-05-07T12:29:16.580Z,10.68
2019-05-07T12:31:52.367Z,10.63
2019-05-07T12:34:24.142Z,11.97
2019-05-07T12:36:53.568Z,11.18
2019-05-07T12:39:23.004Z,11.33
2019-05-07T12:41:52.566Z,10.13
2019-05-07T12:44:22.261Z,11.90
2019-05-07T12:46:53.430Z,11.27
2019-05-07T12:49:22.977Z,9.87
2019-05-07T12:52:12.556Z,9.45
2019-05-07T12:54:52.470Z,9.93
2019-05-07T12:57:22.116Z,9.43
2019-05-07T12:59:52.955Z,8.65
2019-05-07T13:02:36.833Z,10.23
2019-05-07T13:04:58.149Z,10.82
2019-05-07T13:07:29.244Z,9.48
2019-05-07T13:12:27.099Z,10.08
2019-05-07T13:14:56.459Z,10.08
2019-05-07T13:17:25.908Z,9.73
2019-05-07T13:19:55.336Z,8.85
2019-05-07T13:31:07.510Z,9.18
2019-05-07T13:33:38.226Z,9.15
2019-05-07T13:36:07.953Z,9.03
2019-05-07T13:38:48.200Z,8.50
2019-05-07T13:41:24.906Z,9.55
2019-05-07T13:44:14.000Z,8.85
2019-05-07T13:46:45.037Z,9.33
2019-05-07T13:49:14.690Z,8.83
2019-05-07T13:51:44.629Z,9.53
2019-05-07T13:54:14.209Z,8.83
2019-05-07T13:56:43.733Z,8.15
2019-05-07T13:59:13.531Z,8.73
2019-05-07T14:01:55.220Z,9.18
2019-05-07T14:04:24.639Z,9.88
2019-05-07T14:06:54.150Z,10.30
2019-05-07T14:09:25.266Z,10.17
2019-05-07T14:11:54.760Z,9.83
2019-05-07T14:14:24.204Z,10.53
2019-05-07T14:16:53.696Z,10.60
2019-05-07T14:19:23.173Z,10.80
2019-05-07T14:21:53.225Z,10.65
2019-05-07T14:24:22.699Z,10.93
2019-05-07T14:26:52.975Z,10.93
2019-05-07T14:29:24.680Z,11.27
2019-05-07T14:31:58.027Z,10.80
2019-05-07T14:34:34.184Z,10.13
2019-05-07T14:37:06.669Z,9.58
2019-05-07T14:39:37.786Z,8.88
2019-05-07T14:47:22.492Z,8.93
2019-05-07T14:49:52.933Z,9.25
2019-05-07T14:52:32.607Z,8.63
2019-05-07T14:54:53.996Z,9.75
2019-05-07T14:57:23.379Z,10.38
2019-05-07T14:59:52.770Z,10.28
2019-05-07T15:02:23.673Z,11.15
2019-05-07T15:04:53.319Z,10.57
2019-05-07T15:07:22.856Z,10.93
2019-05-07T15:09:52.451Z,10.40
2019-05-07T15:12:23.379Z,10.43
2019-05-07T15:14:53.012Z,10.13
2019-05-07T15:17:37.374Z,11.13
2019-05-07T15:20:08.481Z,10.93
2019-05-07T15:22:49.200Z,10.30
2019-05-07T15:25:13.991Z,10.63
2019-05-07T15:27:46.591Z,11.05
2019-05-07T15:30:16.268Z,9.78
2019-05-07T15:32:45.636Z,9.10
2019-05-07T15:35:15.257Z,10.40
2019-05-07T15:37:45.712Z,10.33
2019-05-07T15:40:15.618Z,9.93
2019-05-07T15:42:46.697Z,10.60
2019-05-07T15:45:17.151Z,10.57
2019-05-07T15:47:48.219Z,10.05
2019-05-07T15:50:23.059Z,10.25
2019-05-07T15:52:58.384Z,10.35
2019-05-07T15:55:27.387Z,9.80
2019-05-07T15:57:57.450Z,10.53
2019-05-07T16:00:28.776Z,10.48
2019-05-07T16:02:59.856Z,10.40
2019-05-07T16:05:29.400Z,11.03
2019-05-07T16:07:58.833Z,10.30
2019-05-07T16:10:28.272Z,11.08
2019-05-07T16:12:57.788Z,10.70
2019-05-07T16:15:27.171Z,10.55
2019-05-07T16:18:02.809Z,10.98
2019-05-07T16:20:32.633Z,11.10
2019-05-07T16:23:14.392Z,11.30
2019-05-07T16:25:34.272Z,10.30
2019-05-07T16:28:04.933Z,9.55
2019-05-07T16:30:37.230Z,9.75
2019-05-07T16:33:06.660Z,10.18
2019-05-07T16:35:36.109Z,9.68
2019-05-07T16:38:06.627Z,10.60
2019-05-07T16:40:36.014Z,10.85
2019-05-07T16:43:06.047Z,10.38
2019-05-07T16:45:39.099Z,11.08
2019-05-07T16:48:08.194Z,10.67
2019-05-07T16:50:39.109Z,10.35
2019-05-07T16:53:13.404Z,9.27
2019-05-07T16:55:42.977Z,10.40
2019-05-07T16:58:34.561Z,10.58
2019-05-07T17:01:03.287Z,9.70
2019-05-07T17:03:34.307Z,9.53
2019-05-07T17:06:03.672Z,10.23
2019-05-07T17:08:38.460Z,10.75
2019-05-07T17:11:07.874Z,10.15
2019-05-07T17:13:37.447Z,10.43
2019-05-07T17:16:06.828Z,10.88
2019-05-07T17:18:36.193Z,11.18
2019-05-07T17:21:07.832Z,11.73
2019-05-07T17:26:07.606Z,10.63
2019-05-07T17:28:37.084Z,11.43
2019-05-07T17:31:06.482Z,11.55
2019-05-07T17:33:35.917Z,10.78
2019-05-07T17:36:05.424Z,10.85
2019-05-07T17:38:34.934Z,11.45
2019-05-07T17:41:13.645Z,10.60
2019-05-07T17:43:35.431Z,10.93
2019-05-07T17:46:05.504Z,11.25
2019-05-07T17:48:38.631Z,11.18
2019-05-07T17:51:09.628Z,10.60
2019-05-07T17:53:39.084Z,10.87
2019-05-07T17:56:10.096Z,10.20
2019-05-07T17:58:39.552Z,11.30
2019-05-07T18:01:09.115Z,11.00
2019-05-07T18:03:42.641Z,10.32
2019-05-07T18:06:12.481Z,10.70
2019-05-07T18:08:42.250Z,11.00
2019-05-07T18:11:20.848Z,10.00
2019-05-07T18:13:42.841Z,10.60
2019-05-07T18:16:26.051Z,11.50
2019-05-07T18:18:55.412Z,12.18
2019-05-07T18:21:26.395Z,10.83
2019-05-07T18:23:55.776Z,12.10
2019-05-07T18:26:29.991Z,11.35
2019-05-07T18:28:56.293Z,11.23
2019-05-07T18:31:33.293Z,12.10
2019-05-07T18:34:02.782Z,11.90
2019-05-07T18:36:32.186Z,11.65
2019-05-07T18:39:01.758Z,10.33
2019-05-07T18:41:34.465Z,10.28
2019-05-07T18:44:12.301Z,11.17
2019-05-07T18:49:03.695Z,10.35
2019-05-07T18:51:33.080Z,10.38
2019-05-07T18:54:02.562Z,11.48
2019-05-07T18:56:32.008Z,13.05
2019-05-07T18:59:02.120Z,10.90
2019-05-07T19:01:33.417Z,11.75
2019-05-07T19:04:02.794Z,12.60
2019-05-07T19:06:32.157Z,13.18
2019-05-07T19:09:01.623Z,13.78
2019-05-07T19:11:32.624Z,11.80
2019-05-07T19:14:03.015Z,13.62
2019-05-07T19:16:32.718Z,13.53
2019-05-07T19:19:03.114Z,13.00
2019-05-07T19:21:32.567Z,13.75
2019-05-07T19:24:02.382Z,15.23
2019-05-07T19:26:32.107Z,14.90
2019-05-07T19:29:02.602Z,14.68
2019-05-07T19:31:32.626Z,16.30
2019-05-07T19:34:03.041Z,14.70
2019-05-07T19:36:34.757Z,16.45
2019-05-07T19:39:05.566Z,15.40
2019-05-07T19:41:37.209Z,15.93
2019-05-07T19:44:06.622Z,15.45
2019-05-07T19:46:37.950Z,15.65
2019-05-07T19:49:07.366Z,15.53
2019-05-07T19:51:36.967Z,16.65
2019-05-07T19:54:06.335Z,16.25
2019-05-07T19:56:35.837Z,16.67
2019-05-07T19:59:06.138Z,16.45
2019-05-07T20:01:37.140Z,16.97
2019-05-07T20:04:07.714Z,15.60
2019-05-07T20:06:37.147Z,15.93
2019-05-07T20:09:12.442Z,16.97
2019-05-07T20:11:49.031Z,17.25
2019-05-07T20:14:22.904Z,16.05
2019-05-07T20:16:53.146Z,16.85
2019-05-07T20:19:23.860Z,16.00
2019-05-07T20:21:53.317Z,15.38
2019-05-07T20:24:22.795Z,15.70
2019-05-07T20:26:52.748Z,15.08
2019-05-07T20:29:23.016Z,16.37
2019-05-07T20:31:53.250Z,16.62
2019-05-07T20:34:24.017Z,15.67
2019-05-07T20:36:54.044Z,15.32
2019-05-07T20:39:23.652Z,16.57
2019-05-07T20:41:53.091Z,16.52
2019-05-07T20:44:25.521Z,16.00
2019-05-07T20:46:57.304Z,17.75
2019-05-07T20:51:55.192Z,16.20
2019-05-07T20:54:32.310Z,17.00
2019-05-07T20:57:03.130Z,16.37
2019-05-07T20:59:36.913Z,17.73
2019-05-07T21:02:06.337Z,18.20
2019-05-07T21:04:35.857Z,17.23
2019-05-07T21:07:06.428Z,17.17
2019-05-07T21:09:35.888Z,16.93
2019-05-07T21:12:06.072Z,18.42
2019-05-07T21:14:35.564Z,17.23
2019-05-07T21:17:07.962Z,16.73
2019-05-07T21:19:37.126Z,18.57
2019-05-07T21:22:06.643Z,17.80
2019-05-07T21:24:36.078Z,16.62
2019-05-07T21:27:06.267Z,17.92
2019-05-07T21:29:36.507Z,17.60
2019-05-07T21:32:07.541Z,18.23
2019-05-07T21:34:36.896Z,17.92
2019-05-07T21:37:08.465Z,19.20
2019-05-07T21:39:37.336Z,19.20
2019-05-07T21:42:06.783Z,19.82
2019-05-07T21:44:37.216Z,19.40
2019-05-07T21:47:06.572Z,20.75
2019-05-07T21:49:35.963Z,17.95
2019-05-07T21:52:06.962Z,19.25
2019-05-07T21:54:37.979Z,17.97
2019-05-07T21:57:12.777Z,18.48
2019-05-07T21:59:43.265Z,20.02
2019-05-07T22:02:22.043Z,18.10
2019-05-07T22:04:52.939Z,18.27
2019-05-07T22:07:22.881Z,19.73
2019-05-07T22:09:54.136Z,19.35
2019-05-07T22:12:23.432Z,19.30
2019-05-07T22:14:55.404Z,19.35
2019-05-07T22:19:53.307Z,20.52
2019-05-07T22:22:24.277Z,20.37
2019-05-07T22:24:54.079Z,19.63
2019-05-07T22:27:25.051Z,21.50
2019-05-07T22:29:54.507Z,19.60
2019-05-07T22:32:44.016Z,19.35
2019-05-07T22:35:24.011Z,19.97
2019-05-07T22:38:13.472Z,19.80
2019-05-07T22:40:44.555Z,19.07
2019-05-07T22:43:16.684Z,20.68
2019-05-07T22:45:46.180Z,19.67
2019-05-07T22:48:17.149Z,19.12
2019-05-07T22:50:46.494Z,18.35
2019-05-07T22:53:15.877Z,19.32
2019-05-07T22:55:45.239Z,18.02
2019-05-07T22:58:22.207Z,19.03
2019-05-07T23:01:02.541Z,18.27
2019-05-07T23:03:32.358Z,18.90
2019-05-07T23:06:07.618Z,17.92
2019-05-07T23:08:38.058Z,18.80
2019-05-07T23:11:08.218Z,18.10
2019-05-07T23:13:37.646Z,19.67
2019-05-07T23:16:07.004Z,18.48
2019-05-07T23:18:36.352Z,18.32
2019-05-07T23:21:05.737Z,17.45
2019-05-07T23:23:35.160Z,19.98
2019-05-07T23:26:06.074Z,18.77
2019-05-07T23:28:35.427Z,20.07
2019-05-07T23:31:07.367Z,18.95
2019-05-07T23:33:36.802Z,18.80
2019-05-07T23:36:06.155Z,19.90
2019-05-07T23:38:35.511Z,20.40
2019-05-07T23:41:06.595Z,19.85
2019-05-07T23:43:36.090Z,20.20
2019-05-07T23:46:05.931Z,18.60
2019-05-07T23:48:35.280Z,17.30
2019-05-07T23:51:04.635Z,17.70
2019-05-07T23:53:33.999Z,18.65
2019-05-07T23:56:03.379Z,18.02
2019-05-07T23:58:32.813Z,15.88
